createdAt,value
2022-12-04T00:02:17.739Z,98566.53
2022-12-04T00:04:44.795Z,98566.53
2022-12-04T00:07:11.748Z,98566.75
2022-12-04T00:09:38.569Z,98561.38
2022-12-04T00:12:05.709Z,98555.16
2022-12-04T00:14:32.734Z,98558.69
2022-12-04T00:16:59.604Z,98558.34
2022-12-04T00:19:27.821Z,98547.59
2022-12-04T00:21:54.758Z,98547.59
2022-12-04T00:24:21.624Z,98538.69
2022-12-04T00:26:48.728Z,98536.22
2022-12-04T00:29:15.732Z,98534.34
2022-12-04T00:31:42.662Z,98528.13
2022-12-04T00:34:09.622Z,98522.75
2022-12-04T00:36:38.111Z,98523.81
2022-12-04T00:39:05.408Z,98526.50
2022-12-04T00:41:32.936Z,98532.97
2022-12-04T00:44:00.807Z,98541.84
2022-12-04T00:46:28.423Z,98544.75
2022-12-04T00:48:55.432Z,98545.59
2022-12-04T00:51:24.680Z,98548.28
2022-12-04T00:53:53.573Z,98543.97
2022-12-04T00:56:22.727Z,98554.72
2022-12-04T00:58:52.400Z,98536.94
2022-12-04T01:01:20.842Z,98529.91
2022-12-04T01:03:48.109Z,98532.34
2022-12-04T01:06:20.900Z,98540.66
2022-12-04T01:08:48.171Z,98549.81
2022-12-04T01:11:16.921Z,98542.81
2022-12-04T01:13:43.975Z,98547.13
2022-12-04T01:16:16.636Z,98548.19
2022-12-04T01:18:43.813Z,98542.81
2022-12-04T01:21:11.715Z,98542.81
2022-12-04T01:23:38.570Z,98545.72
2022-12-04T01:26:05.819Z,98547.34
2022-12-04T01:28:34.494Z,98541.97
2022-12-04T01:31:03.781Z,98533.31
2022-12-04T01:33:31.686Z,98543.03
2022-12-04T01:36:00.278Z,98538.72
2022-12-04T01:38:28.272Z,98535.44
2022-12-04T01:40:56.098Z,98532.72
2022-12-04T01:43:23.641Z,98531.66
2022-12-04T01:45:54.177Z,98534.63
2022-12-04T01:48:27.779Z,98532.72
2022-12-04T01:51:01.223Z,98542.09
2022-12-04T01:53:30.278Z,98541.03
2022-12-04T01:55:58.553Z,98549.94
2022-12-04T01:58:30.969Z,98553.69
2022-12-04T02:01:07.916Z,98553.69
2022-12-04T02:03:37.483Z,98554.50
2022-12-04T02:06:04.467Z,98561.78
2022-12-04T02:08:32.174Z,98559.31
2022-12-04T02:11:11.575Z,98551.25
2022-12-04T02:13:49.170Z,98555.78
2022-12-04T02:16:23.081Z,98551.25
2022-12-04T02:19:01.244Z,98548.78
2022-12-04T02:21:33.372Z,98548.78
2022-12-04T02:24:20.979Z,98556.84
2022-12-04T02:26:52.130Z,98557.91
2022-12-04T02:29:29.012Z,98550.06
2022-12-04T02:32:01.998Z,98555.69
2022-12-04T02:34:35.998Z,98550.88
2022-12-04T02:37:08.716Z,98552.78
2022-12-04T02:39:41.393Z,98548.44
2022-12-04T02:42:14.827Z,98553.00
2022-12-04T02:44:47.475Z,98558.38
2022-12-04T02:47:16.449Z,98554.06
2022-12-04T02:49:47.289Z,98551.38
2022-12-04T02:52:18.514Z,98551.38
2022-12-04T02:54:49.621Z,98554.06
2022-12-04T02:57:21.365Z,98557.56
2022-12-04T02:59:52.367Z,98543.28
2022-12-04T03:02:28.312Z,98547.03
2022-12-04T03:04:58.100Z,98542.66
2022-12-04T03:07:30.889Z,98542.66
2022-12-04T03:10:01.043Z,98548.88
2022-12-04T03:12:36.508Z,98545.16
2022-12-04T03:15:10.119Z,98541.88
2022-12-04T03:17:44.679Z,98532.13
2022-12-04T03:20:14.854Z,98530.28
2022-12-04T03:22:46.612Z,98536.47
2022-12-04T03:25:13.931Z,98534.81
2022-12-04T03:27:49.089Z,98527.81
2022-12-04T03:30:20.810Z,98532.13
2022-12-04T03:32:51.929Z,98531.34
2022-12-04T03:35:23.624Z,98538.59
2022-12-04T03:37:57.006Z,98521.59
2022-12-04T03:40:29.258Z,98528.66
2022-12-04T03:43:01.023Z,98532.38
2022-12-04T03:45:40.957Z,98525.34
2022-12-04T03:48:16.795Z,98525.34
2022-12-04T03:50:52.877Z,98528.28
2022-12-04T03:53:27.767Z,98522.09
2022-12-04T03:56:02.042Z,98522.66
2022-12-04T03:58:32.978Z,98511.34
2022-12-04T04:01:04.636Z,98516.72
2022-12-04T04:03:35.612Z,98519.41
2022-12-04T04:06:08.069Z,98520.44
2022-12-04T04:08:38.909Z,98514.25
2022-12-04T04:11:13.302Z,98513.44
2022-12-04T04:14:05.535Z,98517.75
2022-12-04T04:16:54.151Z,98517.19
2022-12-04T04:19:40.738Z,98520.94
2022-12-04T04:22:28.426Z,98520.09
2022-12-04T04:24:59.497Z,98528.19
2022-12-04T04:27:26.455Z,98519.28
2022-12-04T04:29:53.972Z,98516.59
2022-12-04T04:32:32.744Z,98519.28
2022-12-04T04:35:06.326Z,98506.88
2022-12-04T04:37:40.659Z,98511.19
2022-12-04T04:40:13.437Z,98513.66
2022-12-04T04:42:48.624Z,98505.81
2022-12-04T04:45:21.417Z,98502.31
2022-12-04T04:47:54.568Z,98506.88
2022-12-04T04:50:22.585Z,98510.41
2022-12-04T04:52:53.574Z,98501.50
2022-12-04T04:55:21.284Z,98500.44
2022-12-04T04:57:48.409Z,98505.03
2022-12-04T05:00:17.456Z,98499.03
2022-12-04T05:02:44.875Z,98506.88
2022-12-04T05:05:13.628Z,98502.56
2022-12-04T05:07:40.701Z,98505.25
2022-12-04T05:10:09.352Z,98506.31
2022-12-04T05:12:36.249Z,98508.16
2022-12-04T05:15:03.492Z,98511.09
2022-12-04T05:17:30.326Z,98513.78
2022-12-04T05:19:57.901Z,98513.78
2022-12-04T05:22:28.982Z,98520.00
2022-12-04T05:24:56.319Z,98528.06
2022-12-04T05:27:24.694Z,98514.84
2022-12-04T05:29:53.348Z,98522.69
2022-12-04T05:32:20.687Z,98528.06
2022-12-04T05:34:47.887Z,98524.56
2022-12-04T05:37:14.806Z,98534.75
2022-12-04T05:39:43.413Z,98532.06
2022-12-04T05:42:10.362Z,98533.91
2022-12-04T05:44:37.239Z,98537.44
2022-12-04T05:47:04.126Z,98543.84
2022-12-04T05:49:31.625Z,98547.13
2022-12-04T05:51:58.863Z,98534.97
2022-12-04T05:54:25.947Z,98537.66
2022-12-04T05:56:54.204Z,98543.84
2022-12-04T05:59:21.044Z,98544.69
2022-12-04T06:01:47.927Z,98551.91
2022-12-04T06:04:14.952Z,98558.38
2022-12-04T06:06:41.769Z,98540.59
2022-12-04T06:09:09.412Z,98544.91
2022-12-04T06:11:39.426Z,98549.50
2022-12-04T06:14:10.712Z,98541.41
2022-12-04T06:16:40.217Z,98545.75
2022-12-04T06:19:09.064Z,98547.13
2022-12-04T06:21:37.776Z,98560.13
2022-12-04T06:24:05.821Z,98564.56
2022-12-04T06:26:33.147Z,98560.72
2022-12-04T06:29:00.275Z,98576.75
2022-12-04T06:31:29.933Z,98563.19
2022-12-04T06:33:58.028Z,98563.88
2022-12-04T06:36:25.370Z,98563.50
2022-12-04T06:38:55.428Z,98567.09
2022-12-04T06:41:22.826Z,98572.94
2022-12-04T06:43:51.379Z,98576.09
2022-12-04T06:46:20.208Z,98584.84
2022-12-04T06:48:49.285Z,98585.28
2022-12-04T06:51:18.252Z,98591.38
2022-12-04T06:53:45.900Z,98583.97
2022-12-04T06:56:18.027Z,98590.03
2022-12-04T06:58:47.458Z,98585.31
2022-12-04T07:01:17.846Z,98586.81
2022-12-04T07:03:50.944Z,98582.09
2022-12-04T07:06:21.685Z,98588.63
2022-12-04T07:08:50.562Z,98588.72
2022-12-04T07:11:18.336Z,98588.56
2022-12-04T07:13:45.354Z,98592.16
2022-12-04T07:16:14.907Z,98596.84
2022-12-04T07:18:42.269Z,98596.94
2022-12-04T07:21:11.218Z,98585.69
2022-12-04T07:23:39.438Z,98583.28
2022-12-04T07:26:07.522Z,98581.75
2022-12-04T07:28:34.833Z,98587.22
2022-12-04T07:31:04.460Z,98587.31
2022-12-04T07:33:31.915Z,98594.91
2022-12-04T07:36:00.634Z,98593.84
2022-12-04T07:38:29.271Z,98596.03
2022-12-04T07:40:58.492Z,98599.88
2022-12-04T07:43:25.617Z,98594.25
2022-12-04T07:45:52.837Z,98600.00
2022-12-04T07:48:19.825Z,98595.97
2022-12-04T07:50:46.718Z,98590.88
2022-12-04T07:53:13.625Z,98603.31
2022-12-04T07:55:40.515Z,98606.59
2022-12-04T07:58:08.752Z,98602.59
2022-12-04T08:00:35.543Z,98607.97
2022-12-04T08:03:02.485Z,98613.13
2022-12-04T08:05:29.370Z,98624.75
2022-12-04T08:07:56.711Z,98623.69
2022-12-04T08:10:23.742Z,98631.28
2022-12-04T08:12:50.962Z,98630.47
2022-12-04T08:15:19.213Z,98622.38
2022-12-04T08:17:46.132Z,98619.09
2022-12-04T08:20:12.974Z,98620.16
2022-12-04T08:22:39.827Z,98618.06
2022-12-04T08:25:07.198Z,98619.09
2022-12-04T08:27:34.361Z,98615.59
2022-12-04T08:30:03.507Z,98611.25
2022-12-04T08:32:31.764Z,98606.19
2022-12-04T08:34:58.575Z,98610.50
2022-12-04T08:37:27.571Z,98615.91
2022-12-04T08:39:54.889Z,98617.78
2022-12-04T08:42:22.162Z,98613.22
2022-12-04T08:44:49.036Z,98613.22
2022-12-04T08:47:15.931Z,98610.50
2022-12-04T08:49:44.140Z,98610.50
2022-12-04T08:52:11.024Z,98611.00
2022-12-04T08:54:37.967Z,98608.22
2022-12-04T08:57:05.080Z,98606.59
2022-12-04T08:59:31.927Z,98609.53
2022-12-04T09:01:58.756Z,98616.81
2022-12-04T09:04:25.757Z,98614.03
2022-12-04T09:06:53.970Z,98607.00
2022-12-04T09:09:20.853Z,98604.81
2022-12-04T09:11:47.764Z,98598.84
2022-12-04T09:14:14.657Z,98600.16
2022-12-04T09:16:41.501Z,98598.50
2022-12-04T09:19:08.361Z,98592.31
2022-12-04T09:21:35.296Z,98591.72
2022-12-04T09:24:03.735Z,98590.34
2022-12-04T09:26:32.639Z,98599.75
2022-12-04T09:29:01.504Z,98594.34
2022-12-04T09:31:29.414Z,98591.88
2022-12-04T09:33:59.133Z,98597.53
2022-12-04T09:36:26.126Z,98593.19
2022-12-04T09:38:53.984Z,98589.66
2022-12-04T09:41:59.109Z,98600.22
2022-12-04T09:44:32.818Z,98592.59
2022-12-04T09:47:02.923Z,98585.81
2022-12-04T09:49:36.824Z,98595.56
2022-12-04T09:52:09.091Z,98596.63
2022-12-04T09:54:42.960Z,98595.81
2022-12-04T09:57:16.987Z,98591.47
2022-12-04T09:59:46.258Z,98595.22
2022-12-04T10:02:32.650Z,98595.00
2022-12-04T10:04:59.893Z,98594.16
2022-12-04T10:07:32.360Z,98598.75
2022-12-04T10:10:06.206Z,98597.94
2022-12-04T10:12:43.517Z,98602.53
2022-12-04T10:15:26.783Z,98595.00
2022-12-04T10:18:04.024Z,98604.94
2022-12-04T10:20:47.303Z,98589.59
2022-12-04T10:23:36.609Z,98591.47
2022-12-04T10:26:05.564Z,98586.91
2022-12-04T10:28:37.819Z,98589.59
2022-12-04T10:31:11.029Z,98596.63
2022-12-04T10:33:41.661Z,98598.53
2022-12-04T10:36:14.195Z,98588.75
2022-12-04T10:38:46.746Z,98587.72
2022-12-04T10:41:21.431Z,98592.06
2022-12-04T10:43:50.295Z,98600.16
2022-12-04T10:46:23.304Z,98596.38
2022-12-04T10:48:54.686Z,98588.28
2022-12-04T10:51:22.802Z,98595.31
2022-12-04T10:53:50.568Z,98598.00
2022-12-04T10:56:20.556Z,98587.81
2022-12-04T10:58:58.265Z,98585.34
2022-12-04T11:01:29.017Z,98588.28
2022-12-04T11:04:00.334Z,98586.66
2022-12-04T11:06:28.038Z,98577.50
2022-12-04T11:08:55.814Z,98576.69
2022-12-04T11:11:27.663Z,98579.94
2022-12-04T11:14:05.117Z,98582.09
2022-12-04T11:16:39.661Z,98577.50
2022-12-04T11:19:22.224Z,98582.09
2022-12-04T11:21:50.498Z,98587.72
2022-12-04T11:24:22.171Z,98592.28
2022-12-04T11:26:50.472Z,98589.84
2022-12-04T11:29:20.339Z,98591.72
2022-12-04T11:31:55.041Z,98586.34
2022-12-04T11:34:28.771Z,98590.06
2022-12-04T11:36:57.886Z,98582.22
2022-12-04T11:39:31.003Z,98577.09
2022-12-04T11:42:03.278Z,98583.53
2022-12-04T11:44:31.883Z,98582.72
2022-12-04T11:47:04.079Z,98583.53
2022-12-04T11:49:32.992Z,98577.34
2022-12-04T11:52:26.138Z,98569.25
2022-12-04T11:55:02.522Z,98578.38
2022-12-04T11:57:37.722Z,98570.78
2022-12-04T12:00:11.320Z,98569.97
2022-12-04T12:02:57.128Z,98569.97
2022-12-04T12:05:43.869Z,98572.44
2022-12-04T12:08:21.168Z,98563.75
2022-12-04T12:10:59.381Z,98565.84
2022-12-04T12:13:35.684Z,98572.06
2022-12-04T12:16:12.332Z,98570.19
2022-12-04T12:19:04.971Z,98565.25
2022-12-04T12:21:39.555Z,98571.50
2022-12-04T12:24:25.214Z,98556.63
2022-12-04T12:27:05.339Z,98559.06
2022-12-04T12:29:43.727Z,98553.91
2022-12-04T12:32:27.193Z,98547.13
2022-12-04T12:34:56.047Z,98553.84
2022-12-04T12:37:29.993Z,98556.53
2022-12-04T12:40:02.904Z,98548.44
2022-12-04T12:42:34.465Z,98548.44
2022-12-04T12:45:06.852Z,98558.41
2022-12-04T12:47:39.629Z,98551.38
2022-12-04T12:50:16.526Z,98547.38
2022-12-04T12:52:51.739Z,98558.41
2022-12-04T12:55:24.147Z,98551.63
2022-12-04T12:57:59.540Z,98549.16
2022-12-04T13:00:29.161Z,98548.09
2022-12-04T13:03:01.807Z,98546.47
2022-12-04T13:05:33.817Z,98543.78
2022-12-04T13:08:10.849Z,98540.84
2022-12-04T13:10:43.069Z,98542.94
2022-12-04T13:13:17.307Z,98537.56
2022-12-04T13:15:49.274Z,98525.72
2022-12-04T13:18:25.074Z,98524.06
2022-12-04T13:20:56.461Z,98519.75
2022-12-04T13:23:33.663Z,98528.19
2022-12-04T13:26:07.144Z,98525.38
2022-12-04T13:28:48.704Z,98518.34
2022-12-04T13:31:21.155Z,98514.34
2022-12-04T13:34:12.391Z,98512.97
2022-12-04T13:37:16.334Z,98512.97
2022-12-04T13:40:15.892Z,98517.28
2022-12-04T13:42:42.853Z,98512.13
2022-12-04T13:45:13.206Z,98504.03
2022-12-04T13:47:40.219Z,98504.88
2022-12-04T13:50:25.373Z,98511.09
2022-12-04T13:52:53.974Z,98512.72
2022-12-04T13:55:27.187Z,98504.88
2022-12-04T13:57:55.942Z,98507.31
2022-12-04T14:00:30.443Z,98513.56
2022-12-04T14:03:00.402Z,98500.31
2022-12-04T14:05:31.347Z,98504.63
2022-12-04T14:08:07.757Z,98507.31
2022-12-04T14:10:38.031Z,98506.50
2022-12-04T14:13:16.096Z,98510.03
2022-12-04T14:15:43.205Z,98504.63
2022-12-04T14:18:28.670Z,98503.00
2022-12-04T14:21:00.210Z,98503.00
2022-12-04T14:23:36.631Z,98496.78
2022-12-04T14:26:05.413Z,98497.03
2022-12-04T14:28:42.678Z,98497.03
2022-12-04T14:31:21.703Z,98501.63
2022-12-04T14:33:52.597Z,98492.69
2022-12-04T14:36:24.889Z,98495.41
2022-12-04T14:39:04.365Z,98490.81
2022-12-04T14:41:32.271Z,98499.16
2022-12-04T14:43:59.430Z,98492.09
2022-12-04T14:46:36.683Z,98502.91
2022-12-04T14:49:17.132Z,98497.50
2022-12-04T14:51:54.910Z,98498.31
2022-12-04T14:54:31.954Z,98502.91
2022-12-04T14:57:17.594Z,98493.19
2022-12-04T14:59:47.304Z,98503.16
2022-12-04T15:02:18.948Z,98506.66
2022-12-04T15:04:47.492Z,98505.03
2022-12-04T15:07:20.031Z,98505.88
2022-12-04T15:10:15.405Z,98509.34
2022-12-04T15:12:47.002Z,98507.97
2022-12-04T15:15:19.397Z,98505.50
2022-12-04T15:17:56.522Z,98510.44
2022-12-04T15:20:24.382Z,98507.97
2022-12-04T15:22:51.549Z,98506.09
2022-12-04T15:25:22.509Z,98510.44
2022-12-04T15:27:51.786Z,98503.41
2022-12-04T15:30:21.413Z,98504.19
2022-12-04T15:32:51.771Z,98502.34
2022-12-04T15:35:23.221Z,98502.56
2022-12-04T15:37:50.270Z,98505.03
2022-12-04T15:40:22.608Z,98517.69
2022-12-04T15:42:49.773Z,98509.59
2022-12-04T15:45:31.692Z,98513.13
2022-12-04T15:47:58.781Z,98514.19
2022-12-04T15:50:27.406Z,98513.38
2022-12-04T15:53:01.147Z,98514.19
2022-12-04T15:55:32.162Z,98513.38
2022-12-04T15:58:02.629Z,98508.81
2022-12-04T16:00:32.914Z,98516.28
2022-12-04T16:03:00.895Z,98520.63
2022-12-04T16:05:34.929Z,98529.31
2022-12-04T16:08:21.014Z,98521.44
2022-12-04T16:10:58.788Z,98529.53
2022-12-04T16:13:29.459Z,98532.47
2022-12-04T16:15:58.906Z,98531.69
2022-12-04T16:18:26.282Z,98532.47
2022-12-04T16:20:53.578Z,98530.84
2022-12-04T16:23:22.540Z,98527.91
2022-12-04T16:25:53.438Z,98538.69
2022-12-04T16:28:22.004Z,98531.69
2022-12-04T16:30:50.606Z,98539.50
2022-12-04T16:33:17.555Z,98530.59
2022-12-04T16:35:44.668Z,98537.88
2022-12-04T16:38:15.612Z,98545.97
2022-12-04T16:40:43.264Z,98544.09
2022-12-04T16:43:13.541Z,98545.97
2022-12-04T16:45:46.907Z,98550.28
2022-12-04T16:48:14.265Z,98553.81
2022-12-04T16:50:41.309Z,98555.69
2022-12-04T16:53:09.786Z,98560.28
2022-12-04T16:55:38.586Z,98554.88
2022-12-04T16:58:05.997Z,98560.50
2022-12-04T17:00:33.103Z,98561.91
2022-12-04T17:03:04.107Z,98572.91
2022-12-04T17:05:33.534Z,98570.22
2022-12-04T17:08:01.567Z,98576.69
2022-12-04T17:10:30.065Z,98576.69
2022-12-04T17:12:57.199Z,98584.78
2022-12-04T17:15:24.033Z,98580.22
2022-12-04T17:17:51.169Z,98574.81
2022-12-04T17:20:21.300Z,98587.22
2022-12-04T17:22:48.843Z,98587.22
2022-12-04T17:25:16.438Z,98583.94
2022-12-04T17:27:44.159Z,98585.84
2022-12-04T17:30:12.678Z,98586.66
2022-12-04T17:32:39.737Z,98589.59
2022-12-04T17:35:08.631Z,98584.22
2022-12-04T17:37:36.909Z,98580.69
2022-12-04T17:40:04.780Z,98586.09
2022-12-04T17:42:32.240Z,98583.38
2022-12-04T17:44:59.421Z,98586.91
2022-12-04T17:47:26.496Z,98587.16
2022-12-04T17:49:53.505Z,98585.25
2022-12-04T17:52:22.461Z,98590.09
2022-12-04T17:54:51.330Z,98590.09
2022-12-04T17:57:18.859Z,98591.94
2022-12-04T17:59:45.800Z,98588.19
2022-12-04T18:02:13.019Z,98590.09
2022-12-04T18:04:40.456Z,98593.84
2022-12-04T18:07:07.730Z,98591.16
2022-12-04T18:09:35.503Z,98590.31
2022-12-04T18:12:04.177Z,98595.72
2022-12-04T18:14:32.499Z,98597.59
2022-12-04T18:16:59.508Z,98600.28
2022-12-04T18:19:29.057Z,98602.72
2022-12-04T18:21:56.906Z,98598.66
2022-12-04T18:24:25.348Z,98599.72
2022-12-04T18:26:52.411Z,98603.22
2022-12-04T18:29:22.982Z,98605.91
2022-12-04T18:31:51.131Z,98606.50
2022-12-04T18:34:18.682Z,98603.22
2022-12-04T18:36:45.796Z,98607.81
2022-12-04T18:39:15.720Z,98609.44
2022-12-04T18:41:43.526Z,98610.59
2022-12-04T18:44:10.884Z,98607.66
2022-12-04T18:46:39.463Z,98611.19
2022-12-04T18:49:09.190Z,98613.38
2022-12-04T18:51:38.808Z,98618.28
2022-12-04T18:54:10.221Z,98618.06
2022-12-04T18:56:37.202Z,98609.47
2022-12-04T18:59:05.752Z,98611.81
2022-12-04T19:01:32.758Z,98609.38
2022-12-04T19:04:03.731Z,98610.44
2022-12-04T19:06:31.582Z,98597.19
2022-12-04T19:09:00.749Z,98596.41
2022-12-04T19:11:27.676Z,98603.66
2022-12-04T19:13:54.599Z,98608.22
2022-12-04T19:16:21.536Z,98606.59
2022-12-04T19:18:48.476Z,98609.28
2022-12-04T19:21:18.131Z,98611.97
2022-12-04T19:23:50.708Z,98606.34
2022-12-04T19:26:18.226Z,98609.03
2022-12-04T19:28:45.407Z,98609.88
2022-12-04T19:31:16.758Z,98617.97
2022-12-04T19:33:43.519Z,98621.97
2022-12-04T19:36:11.896Z,98624.06
2022-12-04T19:38:41.330Z,98626.19
2022-12-04T19:41:10.862Z,98634.28
2022-12-04T19:43:38.213Z,98638.84
2022-12-04T19:46:05.407Z,98631.59
2022-12-04T19:48:32.333Z,98634.28
2022-12-04T19:51:03.832Z,98634.28
2022-12-04T19:53:30.766Z,98638.25
2022-12-04T19:56:02.177Z,98642.84
2022-12-04T19:58:31.494Z,98648.25
2022-12-04T20:00:58.842Z,98643.91
2022-12-04T20:03:25.772Z,98646.34
2022-12-04T20:05:52.730Z,98650.94
2022-12-04T20:08:19.712Z,98646.34
2022-12-04T20:10:46.566Z,98639.31
2022-12-04T20:13:15.006Z,98646.03
2022-12-04T20:15:42.391Z,98635.84
2022-12-04T20:18:09.270Z,98635.25
2022-12-04T20:20:36.301Z,98630.09
2022-12-04T20:23:03.166Z,98622.00
2022-12-04T20:25:30.020Z,98627.38
2022-12-04T20:27:56.866Z,98619.53
2022-12-04T20:30:25.185Z,98627.06
2022-12-04T20:32:52.099Z,98622.22
2022-12-04T20:35:18.950Z,98618.75
2022-12-04T20:37:45.761Z,98606.28
2022-12-04T20:40:13.804Z,98614.66
2022-12-04T20:42:40.827Z,98600.56
2022-12-04T20:45:08.456Z,98598.94
2022-12-04T20:47:36.758Z,98604.34
2022-12-04T20:50:04.478Z,98611.34
2022-12-04T20:52:31.354Z,98617.81
2022-12-04T20:54:58.171Z,98622.63
2022-12-04T20:57:25.052Z,98630.13
2022-12-04T20:59:53.630Z,98634.47
2022-12-04T21:02:20.754Z,98638.47
2022-12-04T21:04:48.967Z,98638.22
2022-12-04T21:07:15.904Z,98636.81
2022-12-04T21:09:44.062Z,98643.25
2022-12-04T21:12:30.079Z,98648.31
2022-12-04T21:15:15.196Z,98658.16
2022-12-04T21:17:42.142Z,98653.94
2022-12-04T21:20:11.108Z,98656.28
2022-12-04T21:22:38.169Z,98661.34
2022-12-04T21:25:05.444Z,98675.03
2022-12-04T21:27:32.309Z,98681.72
2022-12-04T21:29:59.947Z,98683.84
2022-12-04T21:32:26.907Z,98694.63
2022-12-04T21:34:53.718Z,98702.81
2022-12-04T21:37:21.951Z,98701.06
2022-12-04T21:39:49.017Z,98711.59
2022-12-04T21:42:45.030Z,98716.38
2022-12-04T21:45:12.005Z,98726.00
2022-12-04T21:47:38.878Z,98721.91
2022-12-04T21:50:07.282Z,98715.44
2022-12-04T21:52:35.550Z,98721.06
2022-12-04T21:55:02.384Z,98727.97
2022-12-04T21:57:29.517Z,98730.91
2022-12-04T21:59:56.737Z,98732.19
2022-12-04T22:02:24.599Z,98730.56
2022-12-04T22:04:51.583Z,98730.00
2022-12-04T22:07:18.475Z,98730.47
2022-12-04T22:09:46.709Z,98726.13
2022-12-04T22:12:47.802Z,98731.75
2022-12-04T22:15:00.485Z,98719.34
2022-12-04T22:17:29.224Z,98723.06
2022-12-04T22:19:56.266Z,98723.31
2022-12-04T22:22:23.272Z,98718.97
2022-12-04T22:24:51.528Z,98731.28
2022-12-04T22:27:18.366Z,98734.41
2022-12-04T22:29:52.530Z,98730.69
2022-12-04T22:32:19.959Z,98727.41
2022-12-04T22:34:47.875Z,98734.06
2022-12-04T22:37:14.948Z,98737.84
2022-12-04T22:39:41.805Z,98741.59
2022-12-04T22:42:10.055Z,98748.22
2022-12-04T22:44:36.897Z,98743.34
2022-12-04T22:47:04.099Z,98754.09
2022-12-04T22:49:30.915Z,98759.72
2022-12-04T22:51:57.795Z,98767.78
2022-12-04T22:54:24.604Z,98767.78
2022-12-04T22:56:51.528Z,98770.72
2022-12-04T22:59:19.750Z,98774.47
2022-12-04T23:01:46.621Z,98778.19
2022-12-04T23:04:13.464Z,98774.09
2022-12-04T23:06:40.282Z,98767.91
2022-12-04T23:09:09.247Z,98767.28
2022-12-04T23:11:36.943Z,98768.34
2022-12-04T23:14:06.395Z,98766.72
2022-12-04T23:16:36.371Z,98777.50
2022-12-04T23:19:04.120Z,98778.28
2022-12-04T23:21:31.236Z,98776.84
2022-12-04T23:23:58.380Z,98774.16
2022-12-04T23:26:26.600Z,98779.78
2022-12-04T23:28:55.118Z,98776.28
2022-12-04T23:31:22.067Z,98778.38
2022-12-04T23:33:50.447Z,98774.88
2022-12-04T23:36:18.046Z,98778.38
2022-12-04T23:38:45.416Z,98777.78
2022-12-04T23:41:13.954Z,98783.41
2022-12-04T23:43:41.257Z,98786.31
2022-12-04T23:46:11.578Z,98789.00
2022-12-04T23:48:39.325Z,98794.63
2022-12-04T23:51:08.776Z,98782.22
2022-12-04T23:53:36.434Z,98790.53
2022-12-04T23:56:06.681Z,98786.19
2022-12-04T23:58:34.791Z,98777.28
